Krusevac, Serbia
Current Conditions -  °F | °C
As of 2:00 AM on Saturday 20 Dec 2014 (Local Time) from LYNI Reporting Station
Clear Clear  
Wind Chill: 37°   Ceiling: Unl
Heat Index: 37°   Visibility: 4mi
Dew Point: 36°   Wind: 3mph
Humidity: 93%   Direction: 90°E
Pressure: 30.15"   Gusts: NA
Location:  43.58°N, 21.32°E
Report Text: LYNI 200000Z 09003KT 7000 NSC 03/02 Q1021
Loading
Personal Weather Stations






























Interactive Weather Map New forecast layout! Learn more

10-Day Weather Forecast

Advertisements
Track Severe Weather on mobile